sensor_id;sensor_type;location;lat;lon;timestamp;P1;durP1;ratioP1;P2;durP2;ratioP2
27758;SDS011;15148;48.972;12.794;2023-06-22T00:00:10;4.70;;;4.20;;
27758;SDS011;15148;48.972;12.794;2023-06-22T00:05:13;12.32;;;4.63;;
27758;SDS011;15148;48.972;12.794;2023-06-22T00:10:17;5.80;;;5.13;;
27758;SDS011;15148;48.972;12.794;2023-06-22T00:15:19;14.60;;;5.63;;
27758;SDS011;15148;48.972;12.794;2023-06-22T00:20:21;7.50;;;4.75;;
27758;SDS011;15148;48.972;12.794;2023-06-22T00:25:24;5.45;;;4.60;;
27758;SDS011;15148;48.972;12.794;2023-06-22T00:30:26;8.40;;;4.00;;
27758;SDS011;15148;48.972;12.794;2023-06-22T00:35:31;8.38;;;4.80;;
27758;SDS011;15148;48.972;12.794;2023-06-22T00:40:34;8.88;;;5.28;;
27758;SDS011;15148;48.972;12.794;2023-06-22T00:45:36;7.07;;;5.90;;
27758;SDS011;15148;48.972;12.794;2023-06-22T00:50:38;11.18;;;6.97;;
27758;SDS011;15148;48.972;12.794;2023-06-22T00:55:41;6.68;;;5.80;;
27758;SDS011;15148;48.972;12.794;2023-06-22T01:00:48;7.60;;;5.55;;
27758;SDS011;15148;48.972;12.794;2023-06-22T01:05:50;8.77;;;6.65;;
27758;SDS011;15148;48.972;12.794;2023-06-22T01:11:01;11.07;;;6.90;;
27758;SDS011;15148;48.972;12.794;2023-06-22T01:16:19;7.35;;;6.63;;
27758;SDS011;15148;48.972;12.794;2023-06-22T01:21:25;8.13;;;6.75;;
27758;SDS011;15148;48.972;12.794;2023-06-22T01:31:49;9.40;;;6.70;;
27758;SDS011;15148;48.972;12.794;2023-06-22T01:36:52;7.80;;;6.88;;
27758;SDS011;15148;48.972;12.794;2023-06-22T01:41:54;8.65;;;6.38;;
27758;SDS011;15148;48.972;12.794;2023-06-22T01:46:57;10.57;;;6.70;;
27758;SDS011;15148;48.972;12.794;2023-06-22T01:52:00;10.00;;;6.68;;
27758;SDS011;15148;48.972;12.794;2023-06-22T01:57:02;10.52;;;7.68;;
27758;SDS011;15148;48.972;12.794;2023-06-22T02:02:06;9.02;;;6.07;;
27758;SDS011;15148;48.972;12.794;2023-06-22T02:07:12;7.88;;;6.30;;
27758;SDS011;15148;48.972;12.794;2023-06-22T02:12:18;8.75;;;6.22;;
27758;SDS011;15148;48.972;12.794;2023-06-22T02:17:24;7.43;;;6.15;;
27758;SDS011;15148;48.972;12.794;2023-06-22T02:22:27;7.00;;;5.85;;
27758;SDS011;15148;48.972;12.794;2023-06-22T02:27:29;5.95;;;5.38;;
27758;SDS011;15148;48.972;12.794;2023-06-22T02:32:31;7.18;;;5.78;;
27758;SDS011;15148;48.972;12.794;2023-06-22T02:37:36;6.32;;;5.40;;
27758;SDS011;15148;48.972;12.794;2023-06-22T02:42:39;8.40;;;6.22;;
27758;SDS011;15148;48.972;12.794;2023-06-22T02:47:42;8.70;;;5.13;;
27758;SDS011;15148;48.972;12.794;2023-06-22T02:52:44;6.38;;;5.57;;
27758;SDS011;15148;48.972;12.794;2023-06-22T02:57:48;13.77;;;5.80;;
27758;SDS011;15148;48.972;12.794;2023-06-22T03:02:54;7.32;;;5.88;;
27758;SDS011;15148;48.972;12.794;2023-06-22T03:07:56;11.00;;;5.63;;
27758;SDS011;15148;48.972;12.794;2023-06-22T03:12:59;6.82;;;6.10;;
27758;SDS011;15148;48.972;12.794;2023-06-22T03:18:01;9.82;;;6.22;;
27758;SDS011;15148;48.972;12.794;2023-06-22T03:23:03;9.30;;;6.03;;
27758;SDS011;15148;48.972;12.794;2023-06-22T03:28:07;7.50;;;5.65;;
27758;SDS011;15148;48.972;12.794;2023-06-22T03:33:09;6.55;;;5.07;;
27758;SDS011;15148;48.972;12.794;2023-06-22T03:38:11;10.05;;;6.03;;
27758;SDS011;15148;48.972;12.794;2023-06-22T03:43:13;9.50;;;5.30;;
27758;SDS011;15148;48.972;12.794;2023-06-22T03:48:14;9.20;;;5.45;;
27758;SDS011;15148;48.972;12.794;2023-06-22T03:53:16;8.80;;;5.68;;
27758;SDS011;15148;48.972;12.794;2023-06-22T03:58:20;7.05;;;5.22;;
27758;SDS011;15148;48.972;12.794;2023-06-22T04:03:22;6.60;;;5.75;;
27758;SDS011;15148;48.972;12.794;2023-06-22T04:08:24;10.48;;;5.60;;
27758;SDS011;15148;48.972;12.794;2023-06-22T04:13:26;8.80;;;4.43;;
27758;SDS011;15148;48.972;12.794;2023-06-22T04:18:28;8.93;;;5.63;;
27758;SDS011;15148;48.972;12.794;2023-06-22T04:23:30;9.07;;;5.78;;
27758;SDS011;15148;48.972;12.794;2023-06-22T04:28:32;6.10;;;5.22;;
27758;SDS011;15148;48.972;12.794;2023-06-22T04:33:36;8.02;;;5.90;;
27758;SDS011;15148;48.972;12.794;2023-06-22T04:38:41;9.88;;;5.55;;
27758;SDS011;15148;48.972;12.794;2023-06-22T04:43:43;7.20;;;5.28;;
27758;SDS011;15148;48.972;12.794;2023-06-22T04:48:45;7.50;;;5.57;;
27758;SDS011;15148;48.972;12.794;2023-06-22T04:53:49;6.80;;;5.47;;
27758;SDS011;15148;48.972;12.794;2023-06-22T04:58:51;11.52;;;6.15;;
27758;SDS011;15148;48.972;12.794;2023-06-22T05:03:53;9.55;;;5.45;;
27758;SDS011;15148;48.972;12.794;2023-06-22T05:08:58;8.60;;;5.85;;
27758;SDS011;15148;48.972;12.794;2023-06-22T05:14:00;8.20;;;5.97;;
27758;SDS011;15148;48.972;12.794;2023-06-22T05:19:02;12.05;;;6.20;;
27758;SDS011;15148;48.972;12.794;2023-06-22T05:24:05;6.63;;;5.60;;
27758;SDS011;15148;48.972;12.794;2023-06-22T05:29:07;9.57;;;5.65;;
27758;SDS011;15148;48.972;12.794;2023-06-22T05:34:09;9.80;;;6.10;;
27758;SDS011;15148;48.972;12.794;2023-06-22T05:39:14;9.50;;;5.88;;
27758;SDS011;15148;48.972;12.794;2023-06-22T05:44:16;10.93;;;5.05;;
27758;SDS011;15148;48.972;12.794;2023-06-22T05:49:18;6.15;;;4.70;;
27758;SDS011;15148;48.972;12.794;2023-06-22T05:54:20;7.03;;;4.55;;
27758;SDS011;15148;48.972;12.794;2023-06-22T05:59:22;5.47;;;4.00;;
27758;SDS011;15148;48.972;12.794;2023-06-22T06:04:24;11.75;;;4.72;;
27758;SDS011;15148;48.972;12.794;2023-06-22T06:09:27;9.27;;;4.65;;
27758;SDS011;15148;48.972;12.794;2023-06-22T06:14:29;7.85;;;5.03;;
27758;SDS011;15148;48.972;12.794;2023-06-22T06:19:30;5.28;;;4.63;;
27758;SDS011;15148;48.972;12.794;2023-06-22T06:24:32;8.18;;;4.88;;
27758;SDS011;15148;48.972;12.794;2023-06-22T06:29:34;10.50;;;5.90;;
27758;SDS011;15148;48.972;12.794;2023-06-22T06:34:36;8.52;;;5.20;;
27758;SDS011;15148;48.972;12.794;2023-06-22T06:39:38;5.78;;;4.80;;
27758;SDS011;15148;48.972;12.794;2023-06-22T06:44:42;9.23;;;5.70;;
27758;SDS011;15148;48.972;12.794;2023-06-22T06:49:43;6.38;;;5.15;;
27758;SDS011;15148;48.972;12.794;2023-06-22T06:54:45;8.65;;;5.70;;
27758;SDS011;15148;48.972;12.794;2023-06-22T06:59:48;7.50;;;5.43;;
27758;SDS011;15148;48.972;12.794;2023-06-22T07:04:50;8.95;;;5.50;;
27758;SDS011;15148;48.972;12.794;2023-06-22T07:09:52;8.77;;;5.60;;
27758;SDS011;15148;48.972;12.794;2023-06-22T07:14:57;8.88;;;5.22;;
27758;SDS011;15148;48.972;12.794;2023-06-22T07:20:03;13.75;;;6.72;;
27758;SDS011;15148;48.972;12.794;2023-06-22T07:25:13;6.53;;;5.70;;
27758;SDS011;15148;48.972;12.794;2023-06-22T07:30:16;9.02;;;5.90;;
27758;SDS011;15148;48.972;12.794;2023-06-22T07:35:19;7.25;;;5.88;;
27758;SDS011;15148;48.972;12.794;2023-06-22T07:40:21;11.07;;;5.82;;
27758;SDS011;15148;48.972;12.794;2023-06-22T07:45:23;8.93;;;5.57;;
27758;SDS011;15148;48.972;12.794;2023-06-22T07:50:25;8.95;;;6.30;;
27758;SDS011;15148;48.972;12.794;2023-06-22T07:55:28;7.88;;;5.85;;
27758;SDS011;15148;48.972;12.794;2023-06-22T08:00:30;9.20;;;6.68;;
27758;SDS011;15148;48.972;12.794;2023-06-22T08:05:32;6.38;;;5.80;;
27758;SDS011;15148;48.972;12.794;2023-06-22T08:10:34;8.48;;;5.82;;
27758;SDS011;15148;48.972;12.794;2023-06-22T08:15:37;9.27;;;6.03;;
27758;SDS011;15148;48.972;12.794;2023-06-22T08:20:39;9.88;;;6.25;;
27758;SDS011;15148;48.972;12.794;2023-06-22T08:25:41;10.88;;;6.45;;
27758;SDS011;15148;48.972;12.794;2023-06-22T08:30:43;9.30;;;6.57;;
27758;SDS011;15148;48.972;12.794;2023-06-22T08:35:45;8.43;;;5.97;;
27758;SDS011;15148;48.972;12.794;2023-06-22T08:40:47;7.32;;;6.07;;
27758;SDS011;15148;48.972;12.794;2023-06-22T08:45:48;9.20;;;6.82;;
27758;SDS011;15148;48.972;12.794;2023-06-22T08:50:50;9.80;;;6.38;;
27758;SDS011;15148;48.972;12.794;2023-06-22T08:55:52;8.02;;;7.07;;
27758;SDS011;15148;48.972;12.794;2023-06-22T09:00:54;11.20;;;6.80;;
27758;SDS011;15148;48.972;12.794;2023-06-22T09:05:56;8.48;;;6.47;;
27758;SDS011;15148;48.972;12.794;2023-06-22T09:10:58;11.85;;;6.43;;
27758;SDS011;15148;48.972;12.794;2023-06-22T09:16:00;7.13;;;6.40;;
27758;SDS011;15148;48.972;12.794;2023-06-22T09:21:02;9.38;;;6.68;;
27758;SDS011;15148;48.972;12.794;2023-06-22T09:26:04;10.88;;;6.40;;
27758;SDS011;15148;48.972;12.794;2023-06-22T09:31:07;9.45;;;6.45;;
27758;SDS011;15148;48.972;12.794;2023-06-22T09:36:09;7.45;;;6.47;;
27758;SDS011;15148;48.972;12.794;2023-06-22T09:41:11;7.80;;;6.38;;
27758;SDS011;15148;48.972;12.794;2023-06-22T09:46:16;8.82;;;6.30;;
27758;SDS011;15148;48.972;12.794;2023-06-22T09:51:18;7.13;;;6.25;;
27758;SDS011;15148;48.972;12.794;2023-06-22T09:56:22;9.88;;;6.40;;
27758;SDS011;15148;48.972;12.794;2023-06-22T10:01:24;10.70;;;7.25;;
27758;SDS011;15148;48.972;12.794;2023-06-22T10:06:26;11.88;;;7.32;;
27758;SDS011;15148;48.972;12.794;2023-06-22T10:11:28;11.40;;;7.82;;
27758;SDS011;15148;48.972;12.794;2023-06-22T10:16:32;9.27;;;7.38;;
27758;SDS011;15148;48.972;12.794;2023-06-22T10:21:35;9.50;;;7.53;;
27758;SDS011;15148;48.972;12.794;2023-06-22T10:26:36;7.72;;;6.50;;
27758;SDS011;15148;48.972;12.794;2023-06-22T10:31:38;11.93;;;7.72;;
27758;SDS011;15148;48.972;12.794;2023-06-22T10:36:40;9.75;;;6.78;;
27758;SDS011;15148;48.972;12.794;2023-06-22T10:41:42;11.65;;;8.02;;
27758;SDS011;15148;48.972;12.794;2023-06-22T10:46:44;8.30;;;7.20;;
27758;SDS011;15148;48.972;12.794;2023-06-22T10:51:46;8.52;;;7.30;;
27758;SDS011;15148;48.972;12.794;2023-06-22T10:56:48;9.90;;;7.22;;
27758;SDS011;15148;48.972;12.794;2023-06-22T11:01:50;11.10;;;7.97;;
27758;SDS011;15148;48.972;12.794;2023-06-22T11:06:52;10.13;;;7.20;;
27758;SDS011;15148;48.972;12.794;2023-06-22T11:11:55;9.10;;;7.70;;
27758;SDS011;15148;48.972;12.794;2023-06-22T11:16:57;9.50;;;7.97;;
27758;SDS011;15148;48.972;12.794;2023-06-22T11:21:59;15.85;;;8.25;;
27758;SDS011;15148;48.972;12.794;2023-06-22T11:27:01;8.88;;;7.65;;
27758;SDS011;15148;48.972;12.794;2023-06-22T11:32:03;12.18;;;7.85;;
27758;SDS011;15148;48.972;12.794;2023-06-22T11:37:08;10.93;;;8.02;;
27758;SDS011;15148;48.972;12.794;2023-06-22T11:42:10;10.27;;;8.25;;
27758;SDS011;15148;48.972;12.794;2023-06-22T11:47:12;10.95;;;8.05;;
27758;SDS011;15148;48.972;12.794;2023-06-22T11:52:13;10.60;;;7.97;;
27758;SDS011;15148;48.972;12.794;2023-06-22T11:57:15;10.30;;;8.20;;
27758;SDS011;15148;48.972;12.794;2023-06-22T12:02:17;10.95;;;7.93;;
27758;SDS011;15148;48.972;12.794;2023-06-22T12:07:19;9.02;;;8.13;;
27758;SDS011;15148;48.972;12.794;2023-06-22T12:12:21;10.93;;;8.20;;
27758;SDS011;15148;48.972;12.794;2023-06-22T12:17:23;14.93;;;8.48;;
27758;SDS011;15148;48.972;12.794;2023-06-22T12:22:25;9.40;;;7.43;;
27758;SDS011;15148;48.972;12.794;2023-06-22T12:27:27;10.27;;;7.63;;
27758;SDS011;15148;48.972;12.794;2023-06-22T12:32:29;13.73;;;7.75;;
27758;SDS011;15148;48.972;12.794;2023-06-22T12:37:31;8.70;;;7.15;;
27758;SDS011;15148;48.972;12.794;2023-06-22T12:42:34;12.85;;;7.60;;
27758;SDS011;15148;48.972;12.794;2023-06-22T12:47:36;9.05;;;6.72;;
27758;SDS011;15148;48.972;12.794;2023-06-22T12:52:39;13.15;;;7.05;;
27758;SDS011;15148;48.972;12.794;2023-06-22T12:57:42;11.95;;;7.32;;
27758;SDS011;15148;48.972;12.794;2023-06-22T13:02:44;11.68;;;6.57;;
27758;SDS011;15148;48.972;12.794;2023-06-22T13:07:47;10.68;;;6.25;;
27758;SDS011;15148;48.972;12.794;2023-06-22T13:12:49;11.00;;;6.32;;
27758;SDS011;15148;48.972;12.794;2023-06-22T13:17:51;11.07;;;7.22;;
27758;SDS011;15148;48.972;12.794;2023-06-22T13:22:53;15.80;;;6.97;;
27758;SDS011;15148;48.972;12.794;2023-06-22T13:27:56;9.52;;;6.38;;
27758;SDS011;15148;48.972;12.794;2023-06-22T13:32:58;10.40;;;6.28;;
27758;SDS011;15148;48.972;12.794;2023-06-22T13:38:00;10.80;;;6.65;;
27758;SDS011;15148;48.972;12.794;2023-06-22T13:43:02;10.25;;;6.95;;
27758;SDS011;15148;48.972;12.794;2023-06-22T13:48:04;10.63;;;6.30;;
27758;SDS011;15148;48.972;12.794;2023-06-22T13:53:07;14.77;;;7.25;;
27758;SDS011;15148;48.972;12.794;2023-06-22T13:58:08;10.40;;;6.03;;
27758;SDS011;15148;48.972;12.794;2023-06-22T14:03:10;9.75;;;6.60;;
27758;SDS011;15148;48.972;12.794;2023-06-22T14:08:12;10.10;;;6.90;;
27758;SDS011;15148;48.972;12.794;2023-06-22T14:13:34;11.63;;;7.10;;
27758;SDS011;15148;48.972;12.794;2023-06-22T14:18:37;11.77;;;7.00;;
27758;SDS011;15148;48.972;12.794;2023-06-22T14:23:39;10.70;;;6.57;;
27758;SDS011;15148;48.972;12.794;2023-06-22T14:28:40;12.77;;;7.70;;
27758;SDS011;15148;48.972;12.794;2023-06-22T14:33:44;17.52;;;7.43;;
27758;SDS011;15148;48.972;12.794;2023-06-22T14:38:48;12.88;;;7.32;;
27758;SDS011;15148;48.972;12.794;2023-06-22T14:43:50;9.23;;;6.55;;
27758;SDS011;15148;48.972;12.794;2023-06-22T14:48:52;16.25;;;6.75;;
27758;SDS011;15148;48.972;12.794;2023-06-22T14:53:53;9.73;;;5.88;;
27758;SDS011;15148;48.972;12.794;2023-06-22T14:58:55;9.40;;;6.53;;
27758;SDS011;15148;48.972;12.794;2023-06-22T15:03:57;11.32;;;6.50;;
27758;SDS011;15148;48.972;12.794;2023-06-22T15:08:59;10.38;;;6.60;;
27758;SDS011;15148;48.972;12.794;2023-06-22T15:14:01;12.52;;;6.75;;
27758;SDS011;15148;48.972;12.794;2023-06-22T15:19:03;13.48;;;7.13;;
27758;SDS011;15148;48.972;12.794;2023-06-22T15:24:05;15.27;;;6.75;;
27758;SDS011;15148;48.972;12.794;2023-06-22T15:29:07;12.23;;;7.57;;
27758;SDS011;15148;48.972;12.794;2023-06-22T15:34:12;13.95;;;6.57;;
27758;SDS011;15148;48.972;12.794;2023-06-22T15:39:14;13.77;;;7.03;;
27758;SDS011;15148;48.972;12.794;2023-06-22T15:44:17;13.48;;;6.93;;
27758;SDS011;15148;48.972;12.794;2023-06-22T15:49:19;13.00;;;7.07;;
27758;SDS011;15148;48.972;12.794;2023-06-22T15:54:21;17.60;;;7.35;;
27758;SDS011;15148;48.972;12.794;2023-06-22T15:59:23;18.85;;;7.95;;
27758;SDS011;15148;48.972;12.794;2023-06-22T16:04:25;12.27;;;6.88;;
27758;SDS011;15148;48.972;12.794;2023-06-22T16:09:27;16.42;;;7.30;;
27758;SDS011;15148;48.972;12.794;2023-06-22T16:14:29;18.70;;;7.25;;
27758;SDS011;15148;48.972;12.794;2023-06-22T16:19:32;15.23;;;6.90;;
27758;SDS011;15148;48.972;12.794;2023-06-22T16:24:34;15.73;;;7.20;;
27758;SDS011;15148;48.972;12.794;2023-06-22T16:29:35;12.55;;;7.60;;
27758;SDS011;15148;48.972;12.794;2023-06-22T16:34:38;13.27;;;7.03;;
27758;SDS011;15148;48.972;12.794;2023-06-22T16:39:40;10.93;;;7.20;;
27758;SDS011;15148;48.972;12.794;2023-06-22T16:44:42;14.60;;;7.07;;
27758;SDS011;15148;48.972;12.794;2023-06-22T16:49:44;16.02;;;6.88;;
27758;SDS011;15148;48.972;12.794;2023-06-22T16:54:46;18.45;;;8.18;;
27758;SDS011;15148;48.972;12.794;2023-06-22T17:00:00;12.98;;;7.45;;
27758;SDS011;15148;48.972;12.794;2023-06-22T17:05:03;11.80;;;7.32;;
27758;SDS011;15148;48.972;12.794;2023-06-22T17:10:06;16.83;;;7.22;;
27758;SDS011;15148;48.972;12.794;2023-06-22T17:15:09;14.05;;;7.43;;
27758;SDS011;15148;48.972;12.794;2023-06-22T17:20:14;17.15;;;7.80;;
27758;SDS011;15148;48.972;12.794;2023-06-22T17:25:16;11.70;;;7.13;;
27758;SDS011;15148;48.972;12.794;2023-06-22T17:30:20;11.50;;;8.25;;
27758;SDS011;15148;48.972;12.794;2023-06-22T17:35:22;22.83;;;11.57;;
27758;SDS011;15148;48.972;12.794;2023-06-22T17:40:24;18.38;;;8.52;;
27758;SDS011;15148;48.972;12.794;2023-06-22T17:45:32;16.33;;;7.80;;
27758;SDS011;15148;48.972;12.794;2023-06-22T17:50:44;12.82;;;8.13;;
27758;SDS011;15148;48.972;12.794;2023-06-22T17:55:46;10.48;;;7.13;;
27758;SDS011;15148;48.972;12.794;2023-06-22T18:00:53;16.20;;;7.73;;
27758;SDS011;15148;48.972;12.794;2023-06-22T18:05:55;15.63;;;8.48;;
27758;SDS011;15148;48.972;12.794;2023-06-22T18:10:57;15.40;;;8.20;;
27758;SDS011;15148;48.972;12.794;2023-06-22T18:16:02;20.80;;;7.97;;
27758;SDS011;15148;48.972;12.794;2023-06-22T18:21:04;16.75;;;7.75;;
27758;SDS011;15148;48.972;12.794;2023-06-22T18:26:08;12.20;;;7.43;;
27758;SDS011;15148;48.972;12.794;2023-06-22T18:31:11;13.27;;;7.97;;
27758;SDS011;15148;48.972;12.794;2023-06-22T18:36:16;9.90;;;6.90;;
27758;SDS011;15148;48.972;12.794;2023-06-22T18:41:48;17.90;;;8.30;;
27758;SDS011;15148;48.972;12.794;2023-06-22T18:47:02;14.23;;;7.32;;
27758;SDS011;15148;48.972;12.794;2023-06-22T18:52:06;17.92;;;8.45;;
27758;SDS011;15148;48.972;12.794;2023-06-22T18:57:25;15.10;;;8.35;;
27758;SDS011;15148;48.972;12.794;2023-06-22T19:12:54;11.27;;;7.35;;
27758;SDS011;15148;48.972;12.794;2023-06-22T19:28:44;12.57;;;7.88;;
27758;SDS011;15148;48.972;12.794;2023-06-22T19:34:07;15.80;;;8.15;;
27758;SDS011;15148;48.972;12.794;2023-06-22T19:39:10;16.35;;;8.70;;
27758;SDS011;15148;48.972;12.794;2023-06-22T19:44:12;16.63;;;8.02;;
27758;SDS011;15148;48.972;12.794;2023-06-22T19:49:15;14.40;;;8.00;;
27758;SDS011;15148;48.972;12.794;2023-06-22T19:54:18;14.55;;;8.23;;
27758;SDS011;15148;48.972;12.794;2023-06-22T19:59:20;20.65;;;8.50;;
27758;SDS011;15148;48.972;12.794;2023-06-22T20:04:24;16.02;;;8.48;;
27758;SDS011;15148;48.972;12.794;2023-06-22T20:09:26;19.25;;;9.13;;
27758;SDS011;15148;48.972;12.794;2023-06-22T20:14:34;16.05;;;8.68;;
27758;SDS011;15148;48.972;12.794;2023-06-22T20:19:36;18.42;;;8.45;;
27758;SDS011;15148;48.972;12.794;2023-06-22T20:24:42;18.38;;;8.35;;
27758;SDS011;15148;48.972;12.794;2023-06-22T20:29:44;16.45;;;7.22;;
27758;SDS011;15148;48.972;12.794;2023-06-22T20:34:46;16.65;;;7.90;;
27758;SDS011;15148;48.972;12.794;2023-06-22T20:39:50;16.58;;;6.53;;
27758;SDS011;15148;48.972;12.794;2023-06-22T20:44:52;12.18;;;6.30;;
27758;SDS011;15148;48.972;12.794;2023-06-22T20:49:54;21.98;;;6.90;;
27758;SDS011;15148;48.972;12.794;2023-06-22T20:55:00;10.02;;;6.10;;
27758;SDS011;15148;48.972;12.794;2023-06-22T21:00:02;14.98;;;6.50;;
27758;SDS011;15148;48.972;12.794;2023-06-22T21:05:08;14.00;;;6.68;;
27758;SDS011;15148;48.972;12.794;2023-06-22T21:10:10;9.98;;;5.60;;
27758;SDS011;15148;48.972;12.794;2023-06-22T21:15:11;15.48;;;7.57;;
27758;SDS011;15148;48.972;12.794;2023-06-22T21:20:13;14.05;;;6.63;;
27758;SDS011;15148;48.972;12.794;2023-06-22T21:25:16;15.63;;;6.43;;
27758;SDS011;15148;48.972;12.794;2023-06-22T21:30:18;14.48;;;6.97;;
27758;SDS011;15148;48.972;12.794;2023-06-22T21:35:20;17.27;;;7.63;;
27758;SDS011;15148;48.972;12.794;2023-06-22T21:40:22;12.30;;;4.72;;
27758;SDS011;15148;48.972;12.794;2023-06-22T21:45:24;9.00;;;4.57;;
27758;SDS011;15148;48.972;12.794;2023-06-22T21:50:26;8.23;;;4.10;;
27758;SDS011;15148;48.972;12.794;2023-06-22T21:55:28;7.90;;;3.40;;
27758;SDS011;15148;48.972;12.794;2023-06-22T22:00:30;7.85;;;3.88;;
27758;SDS011;15148;48.972;12.794;2023-06-22T22:05:32;6.93;;;3.15;;
27758;SDS011;15148;48.972;12.794;2023-06-22T22:10:34;7.35;;;3.45;;
27758;SDS011;15148;48.972;12.794;2023-06-22T22:15:37;9.02;;;3.92;;
27758;SDS011;15148;48.972;12.794;2023-06-22T22:20:40;6.78;;;3.22;;
27758;SDS011;15148;48.972;12.794;2023-06-22T22:25:42;13.73;;;4.15;;
27758;SDS011;15148;48.972;12.794;2023-06-22T22:30:44;7.45;;;3.83;;
27758;SDS011;15148;48.972;12.794;2023-06-22T22:35:46;12.60;;;4.10;;
27758;SDS011;15148;48.972;12.794;2023-06-22T22:40:48;11.77;;;4.50;;
27758;SDS011;15148;48.972;12.794;2023-06-22T22:45:50;9.95;;;4.38;;
27758;SDS011;15148;48.972;12.794;2023-06-22T22:50:51;10.23;;;4.38;;
27758;SDS011;15148;48.972;12.794;2023-06-22T22:55:54;11.77;;;4.70;;
27758;SDS011;15148;48.972;12.794;2023-06-22T23:00:57;9.77;;;4.90;;
27758;SDS011;15148;48.972;12.794;2023-06-22T23:06:00;13.48;;;5.10;;
27758;SDS011;15148;48.972;12.794;2023-06-22T23:11:02;11.13;;;4.72;;
27758;SDS011;15148;48.972;12.794;2023-06-22T23:16:04;8.63;;;4.68;;
27758;SDS011;15148;48.972;12.794;2023-06-22T23:21:06;15.15;;;5.30;;
27758;SDS011;15148;48.972;12.794;2023-06-22T23:26:08;7.07;;;3.58;;
27758;SDS011;15148;48.972;12.794;2023-06-22T23:31:10;8.70;;;4.07;;
27758;SDS011;15148;48.972;12.794;2023-06-22T23:36:12;8.35;;;3.78;;
27758;SDS011;15148;48.972;12.794;2023-06-22T23:41:14;7.55;;;3.22;;
27758;SDS011;15148;48.972;12.794;2023-06-22T23:46:16;9.90;;;3.45;;
27758;SDS011;15148;48.972;12.794;2023-06-22T23:51:17;5.30;;;3.35;;
27758;SDS011;15148;48.972;12.794;2023-06-22T23:56:19;7.70;;;3.47;;
